createdAt,value
2019-03-27T00:01:22.294Z,62.15
2019-03-27T00:03:51.745Z,62.06
2019-03-27T00:06:21.226Z,62.26
2019-03-27T00:08:50.692Z,62.29
2019-03-27T00:11:20.169Z,62.41
2019-03-27T00:13:49.697Z,62.26
2019-03-27T00:16:19.184Z,62.20
2019-03-27T00:18:48.634Z,62.38
2019-03-27T00:21:18.127Z,62.44
2019-03-27T00:23:47.585Z,62.42
2019-03-27T00:26:17.110Z,62.51
2019-03-27T00:28:46.582Z,62.69
2019-03-27T00:31:16.051Z,63.04
2019-03-27T00:33:45.527Z,63.03
2019-03-27T00:36:15.018Z,62.97
2019-03-27T00:38:44.473Z,62.99
2019-03-27T00:41:13.962Z,62.84
2019-03-27T00:43:43.495Z,63.13
2019-03-27T00:46:12.975Z,62.93
2019-03-27T00:48:42.498Z,63.29
2019-03-27T00:51:12.089Z,63.21
2019-03-27T00:53:41.536Z,63.13
2019-03-27T00:56:11.004Z,63.31
2019-03-27T00:58:40.481Z,63.18
2019-03-27T01:01:10.823Z,63.27
2019-03-27T01:03:40.326Z,63.12
2019-03-27T01:06:10.090Z,63.37
2019-03-27T01:08:39.599Z,63.30
2019-03-27T01:11:09.267Z,63.14
2019-03-27T01:13:38.799Z,63.32
2019-03-27T01:16:08.441Z,63.41
2019-03-27T01:18:37.965Z,63.46
2019-03-27T01:21:26.812Z,63.48
2019-03-27T01:23:56.276Z,63.39
2019-03-27T01:26:25.761Z,63.35
2019-03-27T01:28:55.218Z,63.39
2019-03-27T01:31:24.698Z,63.45
2019-03-27T01:33:54.233Z,63.48
2019-03-27T01:36:23.718Z,63.44
2019-03-27T01:38:53.248Z,63.45
2019-03-27T01:41:22.882Z,63.48
2019-03-27T01:43:52.372Z,63.61
2019-03-27T01:46:21.893Z,63.61
2019-03-27T01:48:51.449Z,63.75
2019-03-27T01:51:20.954Z,63.78
2019-03-27T01:53:50.415Z,63.93
2019-03-27T01:56:19.890Z,64.12
2019-03-27T01:58:49.398Z,63.98
2019-03-27T02:01:18.863Z,63.88
2019-03-27T02:03:48.396Z,64.01
2019-03-27T02:06:18.001Z,63.75
2019-03-27T02:08:47.501Z,63.94
2019-03-27T02:11:16.993Z,63.75
2019-03-27T02:13:46.522Z,63.88
2019-03-27T02:16:15.979Z,64.00
2019-03-27T02:18:45.493Z,64.20
2019-03-27T02:21:15.905Z,64.03
2019-03-27T02:23:45.404Z,64.20
2019-03-27T02:26:14.942Z,64.03
2019-03-27T02:28:44.528Z,64.08
2019-03-27T02:31:13.977Z,64.17
2019-03-27T02:33:43.510Z,64.01
2019-03-27T02:36:13.000Z,64.00
2019-03-27T02:38:42.501Z,63.97
2019-03-27T02:41:11.957Z,63.84
2019-03-27T02:43:41.518Z,63.89
2019-03-27T02:46:23.925Z,63.77
2019-03-27T02:48:42.232Z,63.82
2019-03-27T02:51:11.793Z,63.81
2019-03-27T02:53:41.268Z,63.69
2019-03-27T02:56:10.750Z,63.88
2019-03-27T02:58:40.199Z,64.03
2019-03-27T03:01:09.748Z,63.93
2019-03-27T03:03:39.309Z,64.01
2019-03-27T03:06:08.757Z,64.02
2019-03-27T03:08:38.382Z,64.23
2019-03-27T03:11:08.019Z,63.85
2019-03-27T03:13:37.591Z,64.12
2019-03-27T03:16:07.108Z,64.37
2019-03-27T03:18:36.587Z,64.56
2019-03-27T03:21:06.142Z,64.54
2019-03-27T03:23:35.627Z,64.64
2019-03-27T03:26:05.067Z,64.82
2019-03-27T03:28:34.541Z,64.61
2019-03-27T03:31:04.022Z,64.06
2019-03-27T03:33:33.741Z,64.03
2019-03-27T03:36:03.386Z,64.19
2019-03-27T03:38:32.866Z,64.40
2019-03-27T03:41:02.335Z,64.11
2019-03-27T03:43:31.811Z,64.34
2019-03-27T03:46:01.352Z,64.58
2019-03-27T03:48:30.840Z,64.80
2019-03-27T03:51:02.448Z,64.58
2019-03-27T03:53:33.059Z,64.53
2019-03-27T03:56:02.778Z,64.70
2019-03-27T03:58:36.149Z,65.03
2019-03-27T04:01:07.056Z,65.30
2019-03-27T04:03:36.982Z,65.42
2019-03-27T04:06:06.508Z,65.67
2019-03-27T04:08:36.026Z,65.99
2019-03-27T04:11:05.568Z,66.28
2019-03-27T04:13:35.096Z,66.52
2019-03-27T04:16:04.586Z,66.58
2019-03-27T04:18:34.184Z,66.66
2019-03-27T04:21:03.680Z,66.73
2019-03-27T04:23:33.170Z,66.78
2019-03-27T04:26:09.801Z,66.82
2019-03-27T04:28:33.891Z,66.74
2019-03-27T04:31:15.885Z,66.58
2019-03-27T04:33:45.325Z,66.45
2019-03-27T04:36:14.809Z,66.39
2019-03-27T04:38:44.400Z,66.74
2019-03-27T04:41:13.948Z,66.62
2019-03-27T04:43:43.434Z,66.46
2019-03-27T04:46:12.906Z,66.45
2019-03-27T04:48:42.410Z,66.35
2019-03-27T04:51:11.917Z,66.26
2019-03-27T04:53:41.407Z,66.13
2019-03-27T04:56:12.812Z,66.11
2019-03-27T04:58:42.237Z,66.12
2019-03-27T05:01:11.790Z,66.08
2019-03-27T05:03:41.262Z,66.05
2019-03-27T05:06:10.749Z,65.90
2019-03-27T05:08:40.228Z,65.92
2019-03-27T05:11:09.709Z,65.79
2019-03-27T05:13:39.197Z,65.69
2019-03-27T05:16:08.907Z,65.69
2019-03-27T05:18:38.404Z,65.65
2019-03-27T05:21:07.873Z,65.65
2019-03-27T05:23:37.377Z,65.85
2019-03-27T05:26:07.010Z,65.89
2019-03-27T05:28:38.994Z,65.85
2019-03-27T05:31:08.496Z,65.73
2019-03-27T05:33:37.963Z,65.80
2019-03-27T05:36:07.447Z,65.82
2019-03-27T05:38:37.079Z,65.71
2019-03-27T05:41:06.583Z,65.67
2019-03-27T05:43:36.028Z,65.55
2019-03-27T05:46:05.659Z,65.45
2019-03-27T05:48:35.115Z,65.34
2019-03-27T05:51:04.687Z,65.88
2019-03-27T05:53:34.140Z,65.98
2019-03-27T05:56:03.675Z,66.14
2019-03-27T05:58:33.142Z,65.82
2019-03-27T06:01:02.655Z,65.93
2019-03-27T06:03:32.232Z,65.60
2019-03-27T06:06:01.718Z,65.52
2019-03-27T06:08:31.229Z,65.73
2019-03-27T06:11:00.763Z,65.76
2019-03-27T06:13:30.258Z,65.99
2019-03-27T06:15:59.824Z,65.86
2019-03-27T06:18:29.430Z,66.42
2019-03-27T06:20:58.886Z,66.56
2019-03-27T06:23:28.427Z,66.77
2019-03-27T06:25:57.917Z,66.76
2019-03-27T06:28:27.403Z,67.17
2019-03-27T06:30:56.911Z,67.19
2019-03-27T06:33:26.383Z,67.32
2019-03-27T06:35:55.921Z,67.44
2019-03-27T06:38:25.444Z,67.63
2019-03-27T06:40:55.004Z,67.93
2019-03-27T06:43:24.626Z,68.02
2019-03-27T06:45:54.103Z,67.92
2019-03-27T06:48:26.401Z,67.95
2019-03-27T06:50:54.808Z,68.03
2019-03-27T06:53:24.423Z,68.04
2019-03-27T06:55:53.906Z,68.24
2019-03-27T06:58:23.439Z,68.40
2019-03-27T07:00:53.000Z,68.50
2019-03-27T07:03:22.492Z,68.56
2019-03-27T07:05:51.958Z,68.64
2019-03-27T07:08:21.454Z,68.55
2019-03-27T07:10:50.985Z,68.57
2019-03-27T07:13:20.517Z,68.47
2019-03-27T07:15:50.130Z,68.41
2019-03-27T07:18:19.740Z,68.29
2019-03-27T07:20:49.237Z,67.81
2019-03-27T07:23:18.704Z,67.60
2019-03-27T07:25:48.253Z,67.46
2019-03-27T07:28:17.736Z,67.89
2019-03-27T07:30:47.335Z,67.69
2019-03-27T07:33:16.960Z,67.25
2019-03-27T07:35:46.437Z,67.00
2019-03-27T07:38:15.918Z,67.01
2019-03-27T07:40:45.430Z,66.84
2019-03-27T07:43:14.954Z,66.65
2019-03-27T07:45:46.144Z,66.10
2019-03-27T07:48:15.704Z,65.95
2019-03-27T07:50:45.318Z,65.67
2019-03-27T07:53:14.908Z,65.48
2019-03-27T07:55:44.363Z,64.96
2019-03-27T07:58:13.863Z,65.14
2019-03-27T08:00:43.368Z,64.77
2019-03-27T08:03:12.846Z,64.63
2019-03-27T08:05:42.313Z,64.34
2019-03-27T08:08:11.812Z,63.65
2019-03-27T08:10:41.370Z,63.25
2019-03-27T08:13:10.959Z,62.77
2019-03-27T08:15:40.976Z,62.80
2019-03-27T08:18:10.521Z,62.64
2019-03-27T08:20:40.098Z,62.73
2019-03-27T08:23:09.564Z,62.05
2019-03-27T08:25:39.072Z,62.07
2019-03-27T08:28:08.553Z,61.41
2019-03-27T08:30:38.127Z,61.23
2019-03-27T08:33:07.599Z,60.91
2019-03-27T08:35:37.161Z,59.99
2019-03-27T08:38:06.630Z,59.48
2019-03-27T08:40:36.300Z,59.65
2019-03-27T08:43:05.839Z,58.86
2019-03-27T08:45:35.329Z,59.52
2019-03-27T08:48:05.536Z,58.59
2019-03-27T08:50:35.159Z,57.17
2019-03-27T08:53:04.660Z,57.30
2019-03-27T08:55:34.177Z,57.10
2019-03-27T08:58:03.640Z,56.61
2019-03-27T09:00:52.126Z,56.32
2019-03-27T09:03:21.662Z,55.30
2019-03-27T09:05:51.235Z,54.54
2019-03-27T09:08:20.783Z,54.66
2019-03-27T09:10:50.367Z,55.11
2019-03-27T09:13:20.066Z,55.36
2019-03-27T09:15:49.650Z,54.55
2019-03-27T09:18:19.130Z,54.74
2019-03-27T09:20:48.605Z,55.42
2019-03-27T09:23:18.167Z,56.34
2019-03-27T09:25:47.714Z,56.38
2019-03-27T09:28:17.230Z,55.63
2019-03-27T09:30:46.800Z,56.42
2019-03-27T09:33:16.357Z,56.30
2019-03-27T09:35:45.873Z,56.43
2019-03-27T09:38:15.484Z,55.76
2019-03-27T09:40:45.057Z,55.91
2019-03-27T09:43:14.638Z,55.47
2019-03-27T09:45:44.104Z,54.84
2019-03-27T09:48:13.650Z,55.09
2019-03-27T09:50:43.295Z,54.98
2019-03-27T09:53:12.769Z,53.54
2019-03-27T09:55:42.271Z,53.92
2019-03-27T09:58:11.807Z,53.18
2019-03-27T10:00:55.624Z,53.12
2019-03-27T10:03:25.321Z,53.27
2019-03-27T10:05:54.990Z,54.54
2019-03-27T10:08:24.484Z,53.86
2019-03-27T10:10:54.093Z,53.87
2019-03-27T10:13:23.614Z,53.58
2019-03-27T10:15:53.179Z,54.02
2019-03-27T10:18:22.825Z,53.93
2019-03-27T10:20:52.301Z,53.19
2019-03-27T10:23:21.794Z,53.53
2019-03-27T10:25:51.410Z,53.79
2019-03-27T10:28:20.929Z,54.19
2019-03-27T10:30:50.735Z,53.18
2019-03-27T10:33:20.333Z,53.06
2019-03-27T10:35:49.801Z,52.36
2019-03-27T10:38:19.288Z,51.10
2019-03-27T10:40:48.847Z,51.35
2019-03-27T10:43:18.384Z,51.53
2019-03-27T10:45:47.981Z,49.82
2019-03-27T10:48:17.455Z,49.65
2019-03-27T10:50:46.943Z,49.16
2019-03-27T10:53:16.739Z,47.87
2019-03-27T10:55:46.374Z,46.20
2019-03-27T10:58:15.871Z,46.10
2019-03-27T11:00:45.422Z,45.46
2019-03-27T11:03:14.920Z,44.00
2019-03-27T11:05:44.520Z,43.83
2019-03-27T11:08:13.990Z,44.57
2019-03-27T11:10:43.576Z,43.39
2019-03-27T11:13:13.118Z,43.26
2019-03-27T11:15:42.606Z,44.59
2019-03-27T11:18:12.156Z,44.71
2019-03-27T11:20:41.639Z,44.49
2019-03-27T11:23:11.168Z,43.69
2019-03-27T11:25:40.731Z,44.05
2019-03-27T11:28:10.309Z,43.41
2019-03-27T11:30:40.589Z,43.04
2019-03-27T11:33:10.486Z,41.92
2019-03-27T11:35:40.187Z,41.42
2019-03-27T11:38:09.761Z,41.15
2019-03-27T11:40:39.276Z,40.97
2019-03-27T11:43:08.874Z,40.96
2019-03-27T11:45:38.503Z,41.72
2019-03-27T11:48:08.432Z,42.71
2019-03-27T11:50:44.765Z,41.05
2019-03-27T11:53:09.079Z,41.49
2019-03-27T11:55:38.569Z,41.94
2019-03-27T11:58:08.055Z,41.39
2019-03-27T12:00:37.720Z,40.87
2019-03-27T12:03:07.271Z,41.35
2019-03-27T12:05:36.842Z,40.93
2019-03-27T12:08:06.376Z,40.05
2019-03-27T12:10:35.881Z,40.29
2019-03-27T12:13:05.652Z,41.12
2019-03-27T12:15:40.340Z,41.26
2019-03-27T12:18:11.193Z,40.50
2019-03-27T12:20:40.721Z,38.08
2019-03-27T12:23:10.350Z,38.45
2019-03-27T12:25:39.986Z,39.91
2019-03-27T12:28:09.576Z,37.64
2019-03-27T12:30:39.229Z,38.63
2019-03-27T12:33:08.727Z,38.31
2019-03-27T12:35:38.339Z,37.91
2019-03-27T12:38:07.992Z,38.25
2019-03-27T12:40:37.527Z,38.34
2019-03-27T12:43:07.264Z,38.55
2019-03-27T12:45:36.875Z,39.32
2019-03-27T12:48:06.586Z,39.17
2019-03-27T12:50:36.328Z,39.37
2019-03-27T12:53:06.164Z,39.79
2019-03-27T12:55:35.635Z,40.75
2019-03-27T12:58:05.630Z,41.17
2019-03-27T13:00:35.833Z,42.69
2019-03-27T13:03:05.836Z,41.74
2019-03-27T13:05:35.376Z,42.47
2019-03-27T13:08:05.096Z,41.22
2019-03-27T13:10:34.651Z,42.00
2019-03-27T13:13:04.126Z,40.31
2019-03-27T13:15:33.611Z,41.73
2019-03-27T13:18:05.533Z,40.61
2019-03-27T13:20:35.201Z,39.26
2019-03-27T13:23:04.833Z,39.26
2019-03-27T13:25:34.405Z,39.08
2019-03-27T13:28:03.984Z,39.27
2019-03-27T13:30:33.456Z,38.58
2019-03-27T13:33:02.942Z,38.30
2019-03-27T13:35:32.440Z,38.66
2019-03-27T13:38:02.016Z,39.25
2019-03-27T13:40:31.482Z,39.08
2019-03-27T13:43:01.041Z,38.88
2019-03-27T13:45:30.610Z,38.40
2019-03-27T13:48:00.114Z,39.76
2019-03-27T13:50:29.652Z,38.19
2019-03-27T13:52:59.181Z,38.91
2019-03-27T13:55:28.688Z,38.71
2019-03-27T13:57:58.230Z,38.65
2019-03-27T14:00:27.802Z,38.80
2019-03-27T14:02:57.303Z,39.02
2019-03-27T14:05:26.828Z,38.65
2019-03-27T14:07:56.346Z,38.87
2019-03-27T14:10:25.936Z,38.60
2019-03-27T14:12:55.428Z,38.85
2019-03-27T14:15:25.082Z,39.64
2019-03-27T14:17:54.561Z,38.73
2019-03-27T14:20:24.105Z,38.95
2019-03-27T14:22:53.617Z,38.51
2019-03-27T14:25:23.418Z,38.88
2019-03-27T14:27:52.987Z,39.73
2019-03-27T14:30:51.643Z,39.59
2019-03-27T14:33:21.562Z,39.47
2019-03-27T14:35:51.109Z,38.62
2019-03-27T14:38:20.744Z,40.55
2019-03-27T14:40:50.308Z,39.36
2019-03-27T14:43:19.898Z,39.94
2019-03-27T14:45:49.702Z,39.30
2019-03-27T14:48:19.223Z,38.50
2019-03-27T14:50:48.779Z,40.19
2019-03-27T14:53:18.301Z,38.57
2019-03-27T14:55:47.831Z,38.76
2019-03-27T14:58:17.421Z,38.68
2019-03-27T15:00:47.189Z,38.59
2019-03-27T15:03:16.847Z,39.71
2019-03-27T15:05:46.399Z,39.18
2019-03-27T15:08:15.936Z,39.15
2019-03-27T15:10:45.517Z,39.50
2019-03-27T15:13:15.523Z,39.15
2019-03-27T15:15:48.097Z,39.12
2019-03-27T15:18:17.568Z,38.99
2019-03-27T15:20:47.027Z,39.74
2019-03-27T15:23:16.596Z,39.79
2019-03-27T15:25:46.059Z,39.46
2019-03-27T15:28:15.552Z,39.92
2019-03-27T15:30:45.040Z,39.76
2019-03-27T15:33:14.531Z,39.31
2019-03-27T15:35:44.695Z,39.49
2019-03-27T15:38:14.432Z,39.50
2019-03-27T15:40:46.518Z,39.68
2019-03-27T15:43:16.140Z,39.92
2019-03-27T15:45:45.686Z,39.63
2019-03-27T15:48:15.249Z,39.50
2019-03-27T15:50:55.571Z,38.87
2019-03-27T15:53:15.941Z,39.33
2019-03-27T15:55:45.565Z,39.30
2019-03-27T15:58:15.067Z,39.80
2019-03-27T16:00:44.670Z,39.98
2019-03-27T16:03:14.255Z,40.69
2019-03-27T16:05:45.050Z,39.83
2019-03-27T16:08:14.591Z,39.55
2019-03-27T16:10:44.084Z,40.10
2019-03-27T16:13:13.646Z,40.21
2019-03-27T16:15:43.253Z,40.93
2019-03-27T16:18:15.035Z,40.08
2019-03-27T16:20:44.019Z,40.26
2019-03-27T16:23:13.551Z,40.43
2019-03-27T16:25:43.073Z,39.71
2019-03-27T16:28:12.757Z,40.32
2019-03-27T16:30:42.403Z,40.03
2019-03-27T16:33:11.853Z,40.71
2019-03-27T16:35:41.373Z,40.77
2019-03-27T16:38:10.893Z,41.33
2019-03-27T16:40:48.009Z,40.48
2019-03-27T16:43:17.852Z,39.94
2019-03-27T16:45:47.572Z,40.49
2019-03-27T16:48:17.119Z,40.36
2019-03-27T16:50:46.936Z,40.72
2019-03-27T16:53:16.440Z,40.49
2019-03-27T16:55:46.048Z,40.55
2019-03-27T16:58:15.625Z,40.93
2019-03-27T17:00:45.149Z,40.21
2019-03-27T17:03:14.671Z,41.16
2019-03-27T17:05:53.954Z,41.02
2019-03-27T17:08:15.606Z,40.15
2019-03-27T17:10:45.159Z,40.75
2019-03-27T17:13:14.658Z,40.90
2019-03-27T17:15:44.184Z,40.84
2019-03-27T17:18:13.718Z,40.32
2019-03-27T17:20:43.278Z,40.61
2019-03-27T17:23:18.412Z,40.73
2019-03-27T17:25:44.035Z,40.93
2019-03-27T17:28:13.488Z,40.93
2019-03-27T17:30:43.073Z,40.66
2019-03-27T17:33:12.548Z,40.75
2019-03-27T17:35:42.011Z,41.20
2019-03-27T17:38:11.579Z,41.66
2019-03-27T17:40:41.205Z,41.67
2019-03-27T17:43:10.792Z,42.11
2019-03-27T17:45:40.335Z,42.18
2019-03-27T17:48:10.008Z,42.51
2019-03-27T17:50:39.495Z,42.78
2019-03-27T17:53:09.072Z,42.82
2019-03-27T17:55:38.587Z,43.16
2019-03-27T17:58:08.109Z,43.42
2019-03-27T18:00:47.370Z,43.83
2019-03-27T18:03:16.896Z,43.62
2019-03-27T18:05:47.360Z,43.85
2019-03-27T18:08:16.859Z,43.96
2019-03-27T18:10:46.410Z,44.17
2019-03-27T18:13:16.029Z,44.42
2019-03-27T18:15:45.542Z,44.69
2019-03-27T18:18:15.060Z,44.76
2019-03-27T18:20:44.657Z,44.87
2019-03-27T18:23:14.223Z,44.96
2019-03-27T18:25:44.005Z,45.14
2019-03-27T18:28:13.482Z,45.17
2019-03-27T18:30:42.946Z,45.42
2019-03-27T18:33:12.613Z,45.54
2019-03-27T18:35:42.290Z,45.80
2019-03-27T18:38:11.974Z,46.38
2019-03-27T18:40:41.642Z,46.84
2019-03-27T18:43:11.301Z,46.76
2019-03-27T18:45:41.026Z,47.52
2019-03-27T18:48:10.588Z,47.65
2019-03-27T18:50:40.146Z,46.87
2019-03-27T18:53:09.731Z,48.18
2019-03-27T18:55:39.348Z,47.64
2019-03-27T18:58:08.813Z,48.64
2019-03-27T19:00:38.379Z,48.90
2019-03-27T19:03:07.944Z,49.20
2019-03-27T19:05:37.414Z,49.17
2019-03-27T19:08:07.013Z,49.49
2019-03-27T19:10:36.541Z,49.54
2019-03-27T19:13:06.215Z,49.84
2019-03-27T19:15:35.801Z,50.45
2019-03-27T19:18:05.608Z,50.68
2019-03-27T19:20:35.071Z,51.15
2019-03-27T19:23:04.687Z,51.44
2019-03-27T19:25:34.279Z,51.82
2019-03-27T19:28:03.841Z,51.89
2019-03-27T19:30:33.490Z,52.22
2019-03-27T19:33:03.120Z,51.75
2019-03-27T19:35:32.697Z,51.39
2019-03-27T19:38:02.324Z,52.22
2019-03-27T19:40:31.879Z,52.14
2019-03-27T19:43:01.422Z,53.04
2019-03-27T19:45:31.139Z,52.83
2019-03-27T19:48:00.707Z,52.73
2019-03-27T19:50:30.359Z,53.27
2019-03-27T19:52:59.831Z,53.36
2019-03-27T19:55:29.434Z,53.74
2019-03-27T19:57:58.918Z,53.95
2019-03-27T20:00:28.817Z,53.85
2019-03-27T20:02:58.398Z,54.03
2019-03-27T20:05:27.937Z,54.06
2019-03-27T20:07:57.641Z,54.37
2019-03-27T20:10:27.231Z,54.53
2019-03-27T20:12:56.826Z,54.77
2019-03-27T20:15:26.416Z,54.67
2019-03-27T20:17:56.087Z,55.12
2019-03-27T20:20:25.569Z,55.49
2019-03-27T20:22:55.159Z,55.34
2019-03-27T20:25:24.639Z,55.32
2019-03-27T20:27:54.227Z,55.78
2019-03-27T20:30:26.613Z,55.72
2019-03-27T20:32:55.346Z,55.62
2019-03-27T20:35:24.796Z,55.66
2019-03-27T20:37:54.302Z,56.04
2019-03-27T20:40:23.919Z,56.25
2019-03-27T20:42:53.519Z,56.39
2019-03-27T20:45:23.067Z,56.39
2019-03-27T20:47:52.551Z,56.32
2019-03-27T20:50:22.546Z,56.70
2019-03-27T20:52:52.013Z,56.79
2019-03-27T20:55:30.244Z,56.70
2019-03-27T20:57:52.865Z,57.00
2019-03-27T21:00:22.692Z,57.10
2019-03-27T21:02:52.202Z,57.21
2019-03-27T21:05:21.690Z,57.07
2019-03-27T21:07:51.315Z,57.66
2019-03-27T21:10:21.259Z,57.66
2019-03-27T21:12:50.849Z,57.47
2019-03-27T21:15:20.311Z,57.66
2019-03-27T21:17:49.871Z,58.03
2019-03-27T21:20:19.383Z,58.08
2019-03-27T21:22:48.868Z,58.29
2019-03-27T21:25:18.330Z,57.95
2019-03-27T21:27:47.907Z,57.99
2019-03-27T21:30:18.309Z,58.30
2019-03-27T21:32:47.808Z,58.12
2019-03-27T21:35:17.321Z,58.58
2019-03-27T21:37:46.770Z,58.50
2019-03-27T21:40:16.993Z,58.66
2019-03-27T21:42:46.491Z,58.69
2019-03-27T21:45:16.387Z,58.57
2019-03-27T21:47:45.895Z,58.81
2019-03-27T21:50:15.507Z,58.61
2019-03-27T21:52:45.049Z,59.37
2019-03-27T21:55:22.584Z,59.52
2019-03-27T21:57:46.063Z,59.63
2019-03-27T22:00:20.409Z,59.25
2019-03-27T22:02:49.919Z,59.23
2019-03-27T22:05:19.383Z,59.12
2019-03-27T22:07:48.889Z,59.55
2019-03-27T22:10:18.328Z,60.13
2019-03-27T22:12:47.838Z,60.34
2019-03-27T22:15:17.366Z,59.76
2019-03-27T22:17:46.945Z,60.08
2019-03-27T22:20:16.491Z,60.01
2019-03-27T22:22:46.079Z,59.83
2019-03-27T22:25:15.619Z,60.22
2019-03-27T22:27:45.100Z,59.95
2019-03-27T22:30:14.689Z,60.68
2019-03-27T22:32:44.184Z,60.21
2019-03-27T22:35:13.809Z,60.39
2019-03-27T22:37:43.296Z,60.42
2019-03-27T22:40:13.052Z,60.31
2019-03-27T22:42:42.593Z,60.80
2019-03-27T22:45:12.465Z,60.55
2019-03-27T22:47:41.964Z,60.61
2019-03-27T22:50:11.600Z,60.79
2019-03-27T22:52:41.067Z,60.93
2019-03-27T22:55:10.655Z,61.22
2019-03-27T22:57:40.146Z,61.02
2019-03-27T23:00:14.038Z,61.25
2019-03-27T23:02:43.608Z,61.12
2019-03-27T23:05:13.206Z,60.97
2019-03-27T23:07:42.665Z,61.11
2019-03-27T23:10:12.420Z,61.33
2019-03-27T23:12:41.896Z,61.31
2019-03-27T23:15:12.063Z,61.09
2019-03-27T23:17:41.643Z,61.31
2019-03-27T23:20:11.405Z,61.65
2019-03-27T23:22:40.845Z,61.36
2019-03-27T23:25:10.942Z,61.43
2019-03-27T23:27:40.489Z,61.50
2019-03-27T23:30:12.302Z,61.37
2019-03-27T23:32:41.822Z,61.30
2019-03-27T23:35:11.740Z,61.49
2019-03-27T23:37:41.364Z,61.41
2019-03-27T23:40:11.084Z,61.39
2019-03-27T23:42:40.581Z,61.83
2019-03-27T23:45:10.483Z,61.70
2019-03-27T23:47:42.543Z,61.55
2019-03-27T23:50:11.799Z,61.62
2019-03-27T23:52:41.293Z,61.66
2019-03-27T23:55:10.934Z,61.97
2019-03-27T23:57:40.413Z,61.87
